Colombo Express — DIHC — position and weather

sailwx.info

Track history (hours):
 
Tides and Currents Weather Stations Pressure Air Temp Water Temp Dewpoint Dewpoint Depression Visibility Wind Speed Wind Dir Waves Ship Positions

Colombo Express

Last reported at 2017-Jan-19 00:00 UTC. Time now 2017-Jan-19 21:17 UTC.
Position N 48°30' W 009°54'.

Length 335.5 m; beam 42.8 m; draft 14.6 m.

Type: Ship. MMSI: 211433000.

Wind from 100 at 21 knots

Barometer 1034.3 mb
Air temperature 8.2 ° C
Visibility: greater than 5.4 NM
Dewpoint 1.6 ° C
Water temperature 11.0 ° C

Date/timePositionNaut miles runAvg speedWind from/ knotsBaromVisibWave heightAir tempDewpointWater temp
2017-Jan-19 00:00N 48°30' W 009°54'22718.0 100 / 211034.3 5.4 8.2 1.611.0
2017-Jan-18 11:24N 49°51' W 004°30'1618.4
2017-Jan-18 10:33N 49°54' W 004°06'1817.9
2017-Jan-18 09:33N 49°56' W 003°39'1818.0
2017-Jan-18 08:33N 49°58' W 003°11'1918.9
2017-Jan-18 07:33N 50°03' W 002°42'2520.6
2017-Jan-18 06:21N 50°11' W 002°06'1821.5
2017-Jan-18 05:31N 50°20' W 001°41'2221.3
2017-Jan-18 04:30N 50°30' W 001°12'1515.5
2017-Jan-18 03:33N 50°41' W 000°57'1414.5
2017-Jan-18 02:34N 50°47' W 001°18'8 8.2
2017-Jan-18 01:34N 50°54' W 001°25'2 0.2
2017-Jan-17 16:26N 50°55' W 001°28'0 0.0
2017-Jan-17 15:33N 50°55' W 001°28'0 0.0
2017-Jan-17 10:31N 50°55' W 001°28'0 0.0
2017-Jan-17 08:28N 50°55' W 001°28'0 0.0
2017-Jan-17 02:31N 50°54' W 001°27'6 6.3
2017-Jan-17 01:33N 50°51' W 001°20'1010.1
2017-Jan-17 00:34N 50°45' W 001°06'1110.7
2017-Jan-16 23:34N 50°36' W 000°58'2 2.3
2017-Jan-16 22:33N 50°34' W 001°00'2 1.6
2017-Jan-16 21:29N 50°33' W 001°02'1 0.6
2017-Jan-16 20:29N 50°33' W 001°02'0 0.1
2017-Jan-16 19:32N 50°33' W 001°02'3 2.6
2017-Jan-16 18:33N 50°32' W 000°59'1716.9
2017-Jan-16 17:33N 50°33' W 000°32'1818.0
2017-Jan-16 16:33N 50°33' W 000°04'1717.3
2017-Jan-16 15:33N 50°36' E 000°23'1616.0
2017-Jan-16 14:33N 50°42' E 000°46'2014.9
2017-Jan-16 13:13N 50°55' E 001°11'1014.6
2017-Jan-16 12:33N 51°02' E 001°22'1716.8
2017-Jan-16 11:33N 51°12' E 001°43'1818.4
2017-Jan-16 10:33N 51°27' E 002°01'1918.5
2017-Jan-16 09:34N 51°41' E 002°20'11018.2
2017-Jan-16 03:32N 53°06' E 004°14'13018.0
2017-Jan-15 20:19N 53°60' E 007°33'1619.3
2017-Jan-15 19:29N 54°01' E 008°00'1616.8
2017-Jan-15 18:33N 53°59' E 008°27'1615.9
2017-Jan-15 17:34N 53°50' E 008°49'1413.9
2017-Jan-15 16:33N 53°53' E 009°12'1212.2
2017-Jan-15 15:33N 53°44' E 009°27'1110.9
2017-Jan-15 14:33N 53°35' E 009°37'8 8.2
2017-Jan-15 13:33N 53°33' E 009°50'4 3.8
2017-Jan-15 12:33N 53°31' E 009°56'1 1.0
2017-Jan-15 11:33N 53°30' E 009°56'0 0.0
2017-Jan-15 10:32N 53°30' E 009°56'0 0.0
2017-Jan-15 09:32N 53°30' E 009°56'0 0.0
2017-Jan-15 08:32N 53°30' E 009°56'0 0.0
2017-Jan-15 07:32N 53°30' E 009°56'0 0.0
2017-Jan-15 06:32N 53°30' E 009°56'0 0.0
2017-Jan-15 05:32N 53°30' E 009°56'0 0.0
2017-Jan-15 04:32N 53°30' E 009°56'0 0.0
2017-Jan-15 03:32N 53°30' E 009°56'0 0.0
2017-Jan-15 02:32N 53°30' E 009°56'0 0.0
2017-Jan-15 01:32N 53°30' E 009°56'0 0.0
2017-Jan-15 00:32N 53°30' E 009°56'0 0.0
2017-Jan-14 23:32N 53°30' E 009°56'0 0.0
2017-Jan-14 22:32N 53°30' E 009°56'0 0.0
2017-Jan-14 21:32N 53°30' E 009°56'0 0.0
2017-Jan-14 20:32N 53°30' E 009°56'0 0.0
2017-Jan-14 19:32N 53°30' E 009°56'0 0.0
2017-Jan-14 18:32N 53°30' E 009°56'0 0.0
2017-Jan-14 17:32N 53°30' E 009°56'0 0.0
2017-Jan-14 16:32N 53°30' E 009°56'0 0.0
2017-Jan-14 15:32N 53°30' E 009°56'0 0.0
2017-Jan-14 14:32N 53°30' E 009°56'0 0.0
2017-Jan-14 13:32N 53°30' E 009°56'0 0.0
2017-Jan-14 12:32N 53°30' E 009°56'0 0.0
2017-Jan-14 11:32N 53°30' E 009°56'0 0.0
2017-Jan-14 10:32N 53°30' E 009°56'0 0.0
2017-Jan-14 09:32N 53°30' E 009°56'0 0.0
2017-Jan-14 08:32N 53°30' E 009°56'0 0.0
2017-Jan-14 07:32N 53°30' E 009°56'0 0.0
2017-Jan-14 06:32N 53°30' E 009°56'0 0.0
2017-Jan-14 05:32N 53°30' E 009°56'0 0.0
2017-Jan-14 04:32N 53°30' E 009°56'0 0.0
2017-Jan-14 03:32N 53°30' E 009°56'0 0.0
2017-Jan-13 23:32N 53°30' E 009°56'0 0.0
2017-Jan-13 22:32N 53°30' E 009°56'0 0.0
2017-Jan-13 21:33N 53°30' E 009°56'2 1.9
2017-Jan-13 20:33N 53°32' E 009°56'8 8.0
2017-Jan-13 19:33N 53°34' E 009°43'1110.7
2017-Jan-13 18:33N 53°41' E 009°30'1212.2
2017-Jan-13 17:34N 53°51' E 009°18'1010.5
2017-Jan-13 16:33N 53°51' E 009°01'1211.6
2017-Jan-13 15:33N 53°54' E 008°41'1313.3
2017-Jan-13 14:33N 53°59' E 008°21'1010.2
2017-Jan-13 13:33N 53°59' E 008°03'10 9.6
2017-Jan-13 12:33N 53°57' E 007°47'10114.2
2017-Jan-13 05:25N 53°29' E 005°03'2116.0
2017-Jan-13 04:08N 53°16' E 004°35'1016.2
2017-Jan-13 03:30N 53°07' E 004°27'1515.8
2017-Jan-13 02:33N 52°54' E 004°16'1515.1
2017-Jan-13 01:33N 52°41' E 004°03'1414.3
2017-Jan-13 00:33N 52°28' E 003°54'1414.2
2017-Jan-12 23:33N 52°14' E 003°53'1111.0
2017-Jan-12 22:34N 52°03' E 003°54'8 7.8
2017-Jan-12 21:34N 51°58' E 004°04'3 3.0
2017-Jan-12 20:33N 51°57' E 003°59'0 0.0
2017-Jan-12 19:34N 51°57' E 003°59'0 0.0
2017-Jan-12 18:34N 51°57' E 003°59'0 0.0
2017-Jan-12 17:34N 51°57' E 003°59'0 0.0
2017-Jan-12 16:31N 51°57' E 003°59'0 0.0
2017-Jan-12 15:34N 51°57' E 003°59'0 0.0
2017-Jan-12 14:34N 51°57' E 003°59'0 0.0
2017-Jan-12 13:34N 51°57' E 003°59'0 0.0
2017-Jan-12 12:34N 51°57' E 003°59'0 0.0
2017-Jan-12 11:34N 51°57' E 003°59'0 0.0
2017-Jan-12 10:34N 51°57' E 003°59'0 0.0
2017-Jan-12 09:34N 51°57' E 003°59'0 0.0
2017-Jan-12 08:34N 51°57' E 003°59'0 0.0
2017-Jan-12 07:34N 51°57' E 003°59'0 0.0
2017-Jan-12 06:33N 51°57' E 003°59'0 0.0
2017-Jan-12 05:33N 51°57' E 003°59'0 0.0
2017-Jan-12 04:33N 51°57' E 003°59'0 0.0
2017-Jan-12 03:33N 51°57' E 003°59'0 0.0
2017-Jan-12 02:33N 51°57' E 003°59'0 0.0
2017-Jan-12 01:33N 51°57' E 003°59'0 0.0
2017-Jan-12 00:33N 51°57' E 003°59'0 0.0
2017-Jan-11 23:33N 51°57' E 003°59'0 0.0
2017-Jan-11 22:33N 51°57' E 003°59'0 0.0
2017-Jan-11 21:33N 51°57' E 003°59'0 0.0
2017-Jan-11 20:33N 51°57' E 003°59'0 0.0
2017-Jan-11 19:33N 51°57' E 003°59'0 0.0
2017-Jan-11 18:33N 51°57' E 003°59'0 0.0
2017-Jan-11 17:33N 51°57' E 003°59'0 0.0
2017-Jan-11 16:33N 51°57' E 003°59'0 0.0
2017-Jan-11 15:33N 51°57' E 003°59'0 0.0
2017-Jan-11 14:32N 51°57' E 003°59'0 0.0
2017-Jan-11 13:32N 51°57' E 003°59'0 0.0
2017-Jan-11 12:31N 51°57' E 003°59'0 0.0
2017-Jan-11 11:31N 51°57' E 003°59'0 0.0
2017-Jan-11 10:33N 51°57' E 003°59'0 0.0
2017-Jan-11 09:33N 51°57' E 003°59'0 0.0
2017-Jan-11 08:33N 51°57' E 003°59'0 0.0
2017-Jan-11 07:33N 51°57' E 003°59'0 0.0
2017-Jan-11 06:33N 51°57' E 003°59'0 0.0
2017-Jan-11 05:33N 51°57' E 003°59'0 0.0
2017-Jan-11 04:33N 51°57' E 003°59'0 0.0
2017-Jan-11 03:33N 51°57' E 003°59'0 0.0
2017-Jan-11 02:33N 51°57' E 003°59'4 3.7
2017-Jan-11 01:33N 51°58' E 004°05'7 7.4
2017-Jan-11 00:33N 51°60' E 003°54'1 0.9
2017-Jan-10 23:33N 52°00' E 003°53'9 9.1
2017-Jan-10 22:33N 51°58' E 003°39'3 2.8
2017-Jan-10 21:20N 51°55' E 003°36'0 0.0
2017-Jan-10 20:06N 51°55' E 003°36'0 0.0
2017-Jan-10 19:30N 51°55' E 003°36'0 0.0
2017-Jan-10 18:33N 51°55' E 003°36'2 2.1
2017-Jan-10 17:33N 51°56' E 003°33'39 8.9
2017-Jan-10 13:12N 51°43' E 002°33'710.7
2017-Jan-10 12:33N 51°38' E 002°26'1110.8
2017-Jan-10 11:33N 51°30' E 002°14'1212.1
2017-Jan-10 10:33N 51°21' E 002°00'1212.2
2017-Jan-10 09:33N 51°12' E 001°47'1413.8
2017-Jan-10 08:33N 51°00' E 001°35'1715.8
2017-Jan-10 07:29N 50°45' E 001°26'4915.7
2017-Jan-10 04:23N 50°21' E 000°19'1315.4
2017-Jan-10 03:34N 50°15' E 000°02'1514.8
2017-Jan-10 02:33N 50°00' W 000°03'1414.1
2017-Jan-10 01:33N 49°46' W 000°08'1414.0
2017-Jan-10 00:33N 49°32' W 000°04'9 9.5
2017-Jan-09 23:34N 49°28' E 000°09'0 0.2
2017-Jan-09 22:33N 49°28' E 000°09'0 0.0
2017-Jan-09 21:33N 49°28' E 000°09'0 0.0
2017-Jan-09 20:32N 49°28' E 000°09'0 0.0
2017-Jan-09 19:32N 49°28' E 000°09'0 0.0
2017-Jan-09 18:32N 49°28' E 000°09'0 0.0
2017-Jan-09 17:32N 49°28' E 000°09'0 0.0
2017-Jan-09 16:32N 49°28' E 000°09'0 0.0
2017-Jan-09 15:28N 49°28' E 000°09'0 0.0
2017-Jan-09 14:32N 49°28' E 000°09'0 0.0
2017-Jan-09 13:33N 49°28' E 000°09'0 0.0
2017-Jan-09 12:33N 49°28' E 000°09'0 0.0
2017-Jan-09 11:32N 49°28' E 000°09'0 0.0
2017-Jan-09 10:32N 49°28' E 000°09'0 0.0
2017-Jan-09 09:31N 49°28' E 000°09'0 0.0
2017-Jan-09 08:33N 49°28' E 000°09'0 0.0
2017-Jan-09 07:31N 49°28' E 000°09'0 0.0
2017-Jan-09 06:32N 49°28' E 000°09'0 0.0
2017-Jan-09 05:32N 49°28' E 000°09'0 0.0
2017-Jan-09 04:33N 49°28' E 000°09'0 0.0
2017-Jan-09 03:32N 49°28' E 000°09'0 0.0
2017-Jan-09 02:32N 49°28' E 000°09'0 0.0
2017-Jan-09 01:33N 49°28' E 000°09'0 0.0
2017-Jan-09 00:32N 49°28' E 000°09'  
Track history (hours):
 
Tides and Currents Weather Stations Pressure Air Temp Water Temp Dewpoint Dewpoint Depression Visibility Wind Speed Wind Dir Waves Ship Positions

Colombo Express

Last reported at 2017-Jan-19 00:00 UTC. Time now 2017-Jan-19 21:17 UTC.
Position N 48°30' W 009°54'.

Length 335.5 m; beam 42.8 m; draft 14.6 m.

Type: Ship. MMSI: 211433000.

Wind from 100 at 21 knots

Barometer 1034.3 mb
Air temperature 8.2 ° C
Visibility: greater than 5.4 NM
Dewpoint 1.6 ° C
Water temperature 11.0 ° C

Date/timePositionNaut miles runAvg speedWind from/ knotsBaromVisibWave heightAir tempDewpointWater temp
2017-Jan-19 00:00N 48°30' W 009°54'22718.0 100 / 211034.3 5.4 8.2 1.611.0
2017-Jan-18 11:24N 49°51' W 004°30'1618.4
2017-Jan-18 10:33N 49°54' W 004°06'1817.9
2017-Jan-18 09:33N 49°56' W 003°39'1818.0
2017-Jan-18 08:33N 49°58' W 003°11'1918.9
2017-Jan-18 07:33N 50°03' W 002°42'2520.6
2017-Jan-18 06:21N 50°11' W 002°06'1821.5
2017-Jan-18 05:31N 50°20' W 001°41'2221.3
2017-Jan-18 04:30N 50°30' W 001°12'1515.5
2017-Jan-18 03:33N 50°41' W 000°57'1414.5
2017-Jan-18 02:34N 50°47' W 001°18'8 8.2
2017-Jan-18 01:34N 50°54' W 001°25'2 0.2
2017-Jan-17 16:26N 50°55' W 001°28'0 0.0
2017-Jan-17 15:33N 50°55' W 001°28'0 0.0
2017-Jan-17 10:31N 50°55' W 001°28'0 0.0
2017-Jan-17 08:28N 50°55' W 001°28'0 0.0
2017-Jan-17 02:31N 50°54' W 001°27'6 6.3
2017-Jan-17 01:33N 50°51' W 001°20'1010.1
2017-Jan-17 00:34N 50°45' W 001°06'1110.7
2017-Jan-16 23:34N 50°36' W 000°58'2 2.3
2017-Jan-16 22:33N 50°34' W 001°00'2 1.6
2017-Jan-16 21:29N 50°33' W 001°02'1 0.6
2017-Jan-16 20:29N 50°33' W 001°02'0 0.1
2017-Jan-16 19:32N 50°33' W 001°02'3 2.6
2017-Jan-16 18:33N 50°32' W 000°59'1716.9
2017-Jan-16 17:33N 50°33' W 000°32'1818.0
2017-Jan-16 16:33N 50°33' W 000°04'1717.3
2017-Jan-16 15:33N 50°36' E 000°23'1616.0
2017-Jan-16 14:33N 50°42' E 000°46'2014.9
2017-Jan-16 13:13N 50°55' E 001°11'1014.6
2017-Jan-16 12:33N 51°02' E 001°22'1716.8
2017-Jan-16 11:33N 51°12' E 001°43'1818.4
2017-Jan-16 10:33N 51°27' E 002°01'1918.5
2017-Jan-16 09:34N 51°41' E 002°20'11018.2
2017-Jan-16 03:32N 53°06' E 004°14'13018.0
2017-Jan-15 20:19N 53°60' E 007°33'1619.3
2017-Jan-15 19:29N 54°01' E 008°00'1616.8
2017-Jan-15 18:33N 53°59' E 008°27'1615.9
2017-Jan-15 17:34N 53°50' E 008°49'1413.9
2017-Jan-15 16:33N 53°53' E 009°12'1212.2
2017-Jan-15 15:33N 53°44' E 009°27'1110.9
2017-Jan-15 14:33N 53°35' E 009°37'8 8.2
2017-Jan-15 13:33N 53°33' E 009°50'4 3.8
2017-Jan-15 12:33N 53°31' E 009°56'1 1.0
2017-Jan-15 11:33N 53°30' E 009°56'0 0.0
2017-Jan-15 10:32N 53°30' E 009°56'0 0.0
2017-Jan-15 09:32N 53°30' E 009°56'0 0.0
2017-Jan-15 08:32N 53°30' E 009°56'0 0.0
2017-Jan-15 07:32N 53°30' E 009°56'0 0.0
2017-Jan-15 06:32N 53°30' E 009°56'0 0.0
2017-Jan-15 05:32N 53°30' E 009°56'0 0.0
2017-Jan-15 04:32N 53°30' E 009°56'0 0.0
2017-Jan-15 03:32N 53°30' E 009°56'0 0.0
2017-Jan-15 02:32N 53°30' E 009°56'0 0.0
2017-Jan-15 01:32N 53°30' E 009°56'0 0.0
2017-Jan-15 00:32N 53°30' E 009°56'0 0.0
2017-Jan-14 23:32N 53°30' E 009°56'0 0.0
2017-Jan-14 22:32N 53°30' E 009°56'0 0.0
2017-Jan-14 21:32N 53°30' E 009°56'0 0.0
2017-Jan-14 20:32N 53°30' E 009°56'0 0.0
2017-Jan-14 19:32N 53°30' E 009°56'0 0.0
2017-Jan-14 18:32N 53°30' E 009°56'0 0.0
2017-Jan-14 17:32N 53°30' E 009°56'0 0.0
2017-Jan-14 16:32N 53°30' E 009°56'0 0.0
2017-Jan-14 15:32N 53°30' E 009°56'0 0.0
2017-Jan-14 14:32N 53°30' E 009°56'0 0.0
2017-Jan-14 13:32N 53°30' E 009°56'0 0.0
2017-Jan-14 12:32N 53°30' E 009°56'0 0.0
2017-Jan-14 11:32N 53°30' E 009°56'0 0.0
2017-Jan-14 10:32N 53°30' E 009°56'0 0.0
2017-Jan-14 09:32N 53°30' E 009°56'0 0.0
2017-Jan-14 08:32N 53°30' E 009°56'0 0.0
2017-Jan-14 07:32N 53°30' E 009°56'0 0.0
2017-Jan-14 06:32N 53°30' E 009°56'0 0.0
2017-Jan-14 05:32N 53°30' E 009°56'0 0.0
2017-Jan-14 04:32N 53°30' E 009°56'0 0.0
2017-Jan-14 03:32N 53°30' E 009°56'0 0.0
2017-Jan-13 23:32N 53°30' E 009°56'0 0.0
2017-Jan-13 22:32N 53°30' E 009°56'0 0.0
2017-Jan-13 21:33N 53°30' E 009°56'2 1.9
2017-Jan-13 20:33N 53°32' E 009°56'8 8.0
2017-Jan-13 19:33N 53°34' E 009°43'1110.7
2017-Jan-13 18:33N 53°41' E 009°30'1212.2
2017-Jan-13 17:34N 53°51' E 009°18'1010.5
2017-Jan-13 16:33N 53°51' E 009°01'1211.6
2017-Jan-13 15:33N 53°54' E 008°41'1313.3
2017-Jan-13 14:33N 53°59' E 008°21'1010.2
2017-Jan-13 13:33N 53°59' E 008°03'10 9.6
2017-Jan-13 12:33N 53°57' E 007°47'10114.2
2017-Jan-13 05:25N 53°29' E 005°03'2116.0
2017-Jan-13 04:08N 53°16' E 004°35'1016.2
2017-Jan-13 03:30N 53°07' E 004°27'1515.8
2017-Jan-13 02:33N 52°54' E 004°16'1515.1
2017-Jan-13 01:33N 52°41' E 004°03'1414.3
2017-Jan-13 00:33N 52°28' E 003°54'1414.2
2017-Jan-12 23:33N 52°14' E 003°53'1111.0
2017-Jan-12 22:34N 52°03' E 003°54'8 7.8
2017-Jan-12 21:34N 51°58' E 004°04'3 3.0
2017-Jan-12 20:33N 51°57' E 003°59'0 0.0
2017-Jan-12 19:34N 51°57' E 003°59'0 0.0
2017-Jan-12 18:34N 51°57' E 003°59'0 0.0
2017-Jan-12 17:34N 51°57' E 003°59'0 0.0
2017-Jan-12 16:31N 51°57' E 003°59'0 0.0
2017-Jan-12 15:34N 51°57' E 003°59'0 0.0
2017-Jan-12 14:34N 51°57' E 003°59'0 0.0
2017-Jan-12 13:34N 51°57' E 003°59'0 0.0
2017-Jan-12 12:34N 51°57' E 003°59'0 0.0
2017-Jan-12 11:34N 51°57' E 003°59'0 0.0
2017-Jan-12 10:34N 51°57' E 003°59'0 0.0
2017-Jan-12 09:34N 51°57' E 003°59'0 0.0
2017-Jan-12 08:34N 51°57' E 003°59'0 0.0
2017-Jan-12 07:34N 51°57' E 003°59'0 0.0
2017-Jan-12 06:33N 51°57' E 003°59'0 0.0
2017-Jan-12 05:33N 51°57' E 003°59'0 0.0
2017-Jan-12 04:33N 51°57' E 003°59'0 0.0
2017-Jan-12 03:33N 51°57' E 003°59'0 0.0
2017-Jan-12 02:33N 51°57' E 003°59'0 0.0
2017-Jan-12 01:33N 51°57' E 003°59'0 0.0
2017-Jan-12 00:33N 51°57' E 003°59'0 0.0
2017-Jan-11 23:33N 51°57' E 003°59'0 0.0
2017-Jan-11 22:33N 51°57' E 003°59'0 0.0
2017-Jan-11 21:33N 51°57' E 003°59'0 0.0
2017-Jan-11 20:33N 51°57' E 003°59'0 0.0
2017-Jan-11 19:33N 51°57' E 003°59'0 0.0
2017-Jan-11 18:33N 51°57' E 003°59'0 0.0
2017-Jan-11 17:33N 51°57' E 003°59'0 0.0
2017-Jan-11 16:33N 51°57' E 003°59'0 0.0
2017-Jan-11 15:33N 51°57' E 003°59'0 0.0
2017-Jan-11 14:32N 51°57' E 003°59'0 0.0
2017-Jan-11 13:32N 51°57' E 003°59'0 0.0
2017-Jan-11 12:31N 51°57' E 003°59'0 0.0
2017-Jan-11 11:31N 51°57' E 003°59'0 0.0
2017-Jan-11 10:33N 51°57' E 003°59'0 0.0
2017-Jan-11 09:33N 51°57' E 003°59'0 0.0
2017-Jan-11 08:33N 51°57' E 003°59'0 0.0
2017-Jan-11 07:33N 51°57' E 003°59'0 0.0
2017-Jan-11 06:33N 51°57' E 003°59'0 0.0
2017-Jan-11 05:33N 51°57' E 003°59'0 0.0
2017-Jan-11 04:33N 51°57' E 003°59'0 0.0
2017-Jan-11 03:33N 51°57' E 003°59'0 0.0
2017-Jan-11 02:33N 51°57' E 003°59'4 3.7
2017-Jan-11 01:33N 51°58' E 004°05'7 7.4
2017-Jan-11 00:33N 51°60' E 003°54'1 0.9
2017-Jan-10 23:33N 52°00' E 003°53'9 9.1
2017-Jan-10 22:33N 51°58' E 003°39'3 2.8
2017-Jan-10 21:20N 51°55' E 003°36'0 0.0
2017-Jan-10 20:06N 51°55' E 003°36'0 0.0
2017-Jan-10 19:30N 51°55' E 003°36'0 0.0
2017-Jan-10 18:33N 51°55' E 003°36'2 2.1
2017-Jan-10 17:33N 51°56' E 003°33'39 8.9
2017-Jan-10 13:12N 51°43' E 002°33'710.7
2017-Jan-10 12:33N 51°38' E 002°26'1110.8
2017-Jan-10 11:33N 51°30' E 002°14'1212.1
2017-Jan-10 10:33N 51°21' E 002°00'1212.2
2017-Jan-10 09:33N 51°12' E 001°47'1413.8
2017-Jan-10 08:33N 51°00' E 001°35'1715.8
2017-Jan-10 07:29N 50°45' E 001°26'4915.7
2017-Jan-10 04:23N 50°21' E 000°19'1315.4
2017-Jan-10 03:34N 50°15' E 000°02'1514.8
2017-Jan-10 02:33N 50°00' W 000°03'1414.1
2017-Jan-10 01:33N 49°46' W 000°08'1414.0
2017-Jan-10 00:33N 49°32' W 000°04'9 9.5
2017-Jan-09 23:34N 49°28' E 000°09'0 0.2
2017-Jan-09 22:33N 49°28' E 000°09'0 0.0
2017-Jan-09 21:33N 49°28' E 000°09'0 0.0
2017-Jan-09 20:32N 49°28' E 000°09'0 0.0
2017-Jan-09 19:32N 49°28' E 000°09'0 0.0
2017-Jan-09 18:32N 49°28' E 000°09'0 0.0
2017-Jan-09 17:32N 49°28' E 000°09'0 0.0
2017-Jan-09 16:32N 49°28' E 000°09'0 0.0
2017-Jan-09 15:28N 49°28' E 000°09'0 0.0
2017-Jan-09 14:32N 49°28' E 000°09'0 0.0
2017-Jan-09 13:33N 49°28' E 000°09'0 0.0
2017-Jan-09 12:33N 49°28' E 000°09'0 0.0
2017-Jan-09 11:32N 49°28' E 000°09'0 0.0
2017-Jan-09 10:32N 49°28' E 000°09'0 0.0
2017-Jan-09 09:31N 49°28' E 000°09'0 0.0
2017-Jan-09 08:33N 49°28' E 000°09'0 0.0
2017-Jan-09 07:31N 49°28' E 000°09'0 0.0
2017-Jan-09 06:32N 49°28' E 000°09'0 0.0
2017-Jan-09 05:32N 49°28' E 000°09'0 0.0
2017-Jan-09 04:33N 49°28' E 000°09'0 0.0
2017-Jan-09 03:32N 49°28' E 000°09'0 0.0
2017-Jan-09 02:32N 49°28' E 000°09'0 0.0
2017-Jan-09 01:33N 49°28' E 000°09'0 0.0
2017-Jan-09 00:32N 49°28' E 000°09'  

Dump ship's entire track history